sensor_id;sensor_type;location;lat;lon;timestamp;pressure;altitude;pressure_sealevel;temperature;humidity
80798;BME280;70202;52.238;10.680;2023-05-19T00:00:31;101267.38;;;11.61;49.57
80798;BME280;70202;52.238;10.680;2023-05-19T00:01:32;101279.94;;;11.67;49.81
80798;BME280;70202;52.238;10.680;2023-05-19T00:02:36;101280.00;;;11.65;49.20
80798;BME280;70202;52.238;10.680;2023-05-19T00:03:48;101279.25;;;11.60;49.84
80798;BME280;70202;52.238;10.680;2023-05-19T00:04:51;101269.22;;;11.61;49.54
80798;BME280;70202;52.238;10.680;2023-05-19T00:05:52;101275.63;;;11.60;48.94
80798;BME280;70202;52.238;10.680;2023-05-19T00:06:53;101264.78;;;11.57;49.62
80798;BME280;70202;52.238;10.680;2023-05-19T00:07:56;101271.84;;;11.64;49.86
80798;BME280;70202;52.238;10.680;2023-05-19T00:09:00;101285.47;;;11.64;49.95
80798;BME280;70202;52.238;10.680;2023-05-19T00:10:01;101287.28;;;11.65;50.03
80798;BME280;70202;52.238;10.680;2023-05-19T00:11:02;101266.50;;;11.59;49.57
80798;BME280;70202;52.238;10.680;2023-05-19T00:12:02;101275.50;;;11.64;49.65
80798;BME280;70202;52.238;10.680;2023-05-19T00:13:03;101268.19;;;11.65;49.43
80798;BME280;70202;52.238;10.680;2023-05-19T00:14:07;101268.34;;;11.59;49.64
80798;BME280;70202;52.238;10.680;2023-05-19T00:15:09;101277.28;;;11.64;49.79
80798;BME280;70202;52.238;10.680;2023-05-19T00:16:10;101273.66;;;11.63;49.23
80798;BME280;70202;52.238;10.680;2023-05-19T00:17:10;101264.72;;;11.58;49.96
80798;BME280;70202;52.238;10.680;2023-05-19T00:18:11;101264.66;;;11.61;49.31
80798;BME280;70202;52.238;10.680;2023-05-19T00:19:12;101271.94;;;11.61;50.08
80798;BME280;70202;52.238;10.680;2023-05-19T00:20:13;101257.56;;;11.54;49.58
80798;BME280;70202;52.238;10.680;2023-05-19T00:21:14;101260.38;;;11.51;49.80
80798;BME280;70202;52.238;10.680;2023-05-19T00:22:15;101265.63;;;11.59;49.68
80798;BME280;70202;52.238;10.680;2023-05-19T00:23:16;101269.22;;;11.59;49.27
80798;BME280;70202;52.238;10.680;2023-05-19T00:24:16;101254.91;;;11.51;49.77
80798;BME280;70202;52.238;10.680;2023-05-19T00:25:16;101267.50;;;11.57;50.14
80798;BME280;70202;52.238;10.680;2023-05-19T00:26:17;101269.34;;;11.56;49.62
80798;BME280;70202;52.238;10.680;2023-05-19T00:27:17;101273.91;;;11.56;50.09
80798;BME280;70202;52.238;10.680;2023-05-19T00:28:17;101276.63;;;11.56;50.14
80798;BME280;70202;52.238;10.680;2023-05-19T00:29:18;101277.56;;;11.55;49.92
80798;BME280;70202;52.238;10.680;2023-05-19T00:30:18;101264.03;;;11.50;49.84
80798;BME280;70202;52.238;10.680;2023-05-19T00:31:18;101270.31;;;11.54;49.82
80798;BME280;70202;52.238;10.680;2023-05-19T00:32:19;101255.97;;;11.45;50.27
80798;BME280;70202;52.238;10.680;2023-05-19T00:33:19;101255.97;;;11.45;49.51
80798;BME280;70202;52.238;10.680;2023-05-19T00:34:19;101265.81;;;11.52;50.31
80798;BME280;70202;52.238;10.680;2023-05-19T00:35:20;101263.28;;;11.45;49.95
80798;BME280;70202;52.238;10.680;2023-05-19T00:36:20;101267.66;;;11.50;49.62
80798;BME280;70202;52.238;10.680;2023-05-19T00:37:21;101263.19;;;11.48;49.95
80798;BME280;70202;52.238;10.680;2023-05-19T00:38:22;101257.00;;;11.41;49.58
80798;BME280;70202;52.238;10.680;2023-05-19T00:39:22;101264.97;;;11.49;50.24
80798;BME280;70202;52.238;10.680;2023-05-19T00:40:23;101260.47;;;11.48;49.81
80798;BME280;70202;52.238;10.680;2023-05-19T00:41:23;101270.50;;;11.47;50.39
80798;BME280;70202;52.238;10.680;2023-05-19T00:42:24;101257.94;;;11.40;49.81
80798;BME280;70202;52.238;10.680;2023-05-19T00:43:25;101254.34;;;11.38;50.10
80798;BME280;70202;52.238;10.680;2023-05-19T00:44:25;101268.84;;;11.40;49.98
80798;BME280;70202;52.238;10.680;2023-05-19T00:45:26;101254.44;;;11.35;49.87
80798;BME280;70202;52.238;10.680;2023-05-19T00:46:26;101263.34;;;11.42;50.19
80798;BME280;70202;52.238;10.680;2023-05-19T00:47:27;101253.56;;;11.35;50.24
80798;BME280;70202;52.238;10.680;2023-05-19T00:48:27;101255.34;;;11.36;50.58
80798;BME280;70202;52.238;10.680;2023-05-19T00:49:28;101264.34;;;11.39;50.30
80798;BME280;70202;52.238;10.680;2023-05-19T00:50:28;101262.53;;;11.38;50.22
80798;BME280;70202;52.238;10.680;2023-05-19T00:51:30;101256.19;;;11.38;50.51
80798;BME280;70202;52.238;10.680;2023-05-19T00:52:31;101262.56;;;11.37;49.92
80798;BME280;70202;52.238;10.680;2023-05-19T00:53:32;101261.63;;;11.38;50.42
80798;BME280;70202;52.238;10.680;2023-05-19T00:54:33;101241.06;;;11.26;50.56
80798;BME280;70202;52.238;10.680;2023-05-19T00:55:36;101259.84;;;11.37;50.34
80798;BME280;70202;52.238;10.680;2023-05-19T00:56:36;101256.22;;;11.36;50.06
80798;BME280;70202;52.238;10.680;2023-05-19T00:57:37;101258.06;;;11.36;50.29
80798;BME280;70202;52.238;10.680;2023-05-19T00:58:37;101247.28;;;11.31;49.89
80798;BME280;70202;52.238;10.680;2023-05-19T00:59:38;101242.72;;;11.32;50.39
80798;BME280;70202;52.238;10.680;2023-05-19T01:00:39;101252.75;;;11.30;50.76
80798;BME280;70202;52.238;10.680;2023-05-19T01:01:39;101244.63;;;11.28;50.51
80798;BME280;70202;52.238;10.680;2023-05-19T01:02:39;101241.97;;;11.25;50.23
80798;BME280;70202;52.238;10.680;2023-05-19T01:03:40;101249.13;;;11.31;50.54
80798;BME280;70202;52.238;10.680;2023-05-19T01:04:42;101251.84;;;11.31;50.19
80798;BME280;70202;52.238;10.680;2023-05-19T01:05:43;101251.88;;;11.29;50.66
80798;BME280;70202;52.238;10.680;2023-05-19T01:06:46;101239.38;;;11.20;50.59
80798;BME280;70202;52.238;10.680;2023-05-19T01:07:47;101247.34;;;11.28;50.46
80798;BME280;70202;52.238;10.680;2023-05-19T01:08:52;101250.13;;;11.26;50.16
80798;BME280;70202;52.238;10.680;2023-05-19T01:09:52;101254.66;;;11.27;50.25
80798;BME280;70202;52.238;10.680;2023-05-19T01:10:53;101244.81;;;11.22;50.52
80798;BME280;70202;52.238;10.680;2023-05-19T01:11:53;101246.59;;;11.23;50.85
80798;BME280;70202;52.238;10.680;2023-05-19T01:12:54;101244.88;;;11.19;50.20
80798;BME280;70202;52.238;10.680;2023-05-19T01:13:54;101242.97;;;11.22;50.58
80798;BME280;70202;52.238;10.680;2023-05-19T01:14:56;101253.00;;;11.22;50.27
80798;BME280;70202;52.238;10.680;2023-05-19T01:16:21;101255.72;;;11.20;50.41
80798;BME280;70202;52.238;10.680;2023-05-19T01:20:00;101252.19;;;11.17;50.88
80798;BME280;70202;52.238;10.680;2023-05-19T01:30:51;101241.00;;;10.93;50.79
80798;BME280;70202;52.238;10.680;2023-05-19T01:31:54;101250.94;;;10.96;50.48
80798;BME280;70202;52.238;10.680;2023-05-19T01:33:01;101251.91;;;10.93;50.77
80798;BME280;70202;52.238;10.680;2023-05-19T01:34:02;101236.63;;;10.86;50.90
80798;BME280;70202;52.238;10.680;2023-05-19T01:35:04;101256.47;;;10.91;51.71
80798;BME280;70202;52.238;10.680;2023-05-19T01:36:07;101251.03;;;10.91;50.94
80798;BME280;70202;52.238;10.680;2023-05-19T01:37:07;101252.84;;;10.91;51.72
80798;BME280;70202;52.238;10.680;2023-05-19T01:38:10;101245.63;;;10.90;50.61
80798;BME280;70202;52.238;10.680;2023-05-19T01:39:11;101241.94;;;10.91;51.26
80798;BME280;70202;52.238;10.680;2023-05-19T01:40:12;101234.84;;;10.85;51.11
80798;BME280;70202;52.238;10.680;2023-05-19T01:41:13;101247.41;;;10.91;51.08
80798;BME280;70202;52.238;10.680;2023-05-19T01:42:15;101247.50;;;10.88;52.06
80798;BME280;70202;52.238;10.680;2023-05-19T01:43:19;101249.22;;;10.92;51.68
80798;BME280;70202;52.238;10.680;2023-05-19T01:44:20;101255.56;;;10.92;51.30
80798;BME280;70202;52.238;10.680;2023-05-19T01:45:22;101245.56;;;10.93;51.36
80798;BME280;70202;52.238;10.680;2023-05-19T01:46:23;101245.56;;;10.93;50.70
80798;BME280;70202;52.238;10.680;2023-05-19T01:47:23;101247.34;;;10.94;51.19
80798;BME280;70202;52.238;10.680;2023-05-19T01:48:25;101248.28;;;10.93;51.25
80798;BME280;70202;52.238;10.680;2023-05-19T01:49:26;101235.69;;;10.87;51.23
80798;BME280;70202;52.238;10.680;2023-05-19T01:50:27;101244.59;;;10.94;50.67
80798;BME280;70202;52.238;10.680;2023-05-19T01:51:27;101246.44;;;10.93;51.50
80798;BME280;70202;52.238;10.680;2023-05-19T01:52:28;101242.97;;;10.87;51.27
80798;BME280;70202;52.238;10.680;2023-05-19T01:53:28;101235.66;;;10.89;51.58
80798;BME280;70202;52.238;10.680;2023-05-19T01:54:28;101244.56;;;10.95;51.61
80798;BME280;70202;52.238;10.680;2023-05-19T01:55:29;101252.72;;;10.95;51.20
80798;BME280;70202;52.238;10.680;2023-05-19T01:56:59;101251.81;;;10.96;51.19
80798;BME280;70202;52.238;10.680;2023-05-19T01:58:45;101244.69;;;10.91;50.74
80798;BME280;70202;52.238;10.680;2023-05-19T02:01:43;101250.00;;;10.97;50.77
80798;BME280;70202;52.238;10.680;2023-05-19T02:04:16;101257.28;;;10.95;51.21
80798;BME280;70202;52.238;10.680;2023-05-19T02:06:41;101259.13;;;10.96;51.13
80798;BME280;70202;52.238;10.680;2023-05-19T02:07:50;101259.19;;;10.91;51.76
80798;BME280;70202;52.238;10.680;2023-05-19T02:10:26;101258.25;;;10.94;51.04
80798;BME280;70202;52.238;10.680;2023-05-19T02:12:39;101266.41;;;10.94;51.45
80798;BME280;70202;52.238;10.680;2023-05-19T02:13:42;101261.91;;;10.93;51.62
80798;BME280;70202;52.238;10.680;2023-05-19T02:15:05;101264.63;;;10.93;51.67
80798;BME280;70202;52.238;10.680;2023-05-19T02:16:07;101262.75;;;10.95;51.38
80798;BME280;70202;52.238;10.680;2023-05-19T02:17:08;101246.56;;;10.89;51.67
80798;BME280;70202;52.238;10.680;2023-05-19T02:18:11;101250.19;;;10.89;50.88
80798;BME280;70202;52.238;10.680;2023-05-19T02:19:30;101255.50;;;10.94;51.88
80798;BME280;70202;52.238;10.680;2023-05-19T02:20:31;101258.19;;;10.95;51.76
80798;BME280;70202;52.238;10.680;2023-05-19T02:21:31;101245.66;;;10.88;51.66
80798;BME280;70202;52.238;10.680;2023-05-19T02:22:31;101260.91;;;10.95;51.75
80798;BME280;70202;52.238;10.680;2023-05-19T02:23:32;101259.25;;;10.90;51.28
80798;BME280;70202;52.238;10.680;2023-05-19T02:24:32;101252.84;;;10.91;51.36
80798;BME280;70202;52.238;10.680;2023-05-19T02:25:32;101257.28;;;10.95;51.18
80798;BME280;70202;52.238;10.680;2023-05-19T02:26:33;101246.56;;;10.89;51.54
80798;BME280;70202;52.238;10.680;2023-05-19T02:27:34;101252.91;;;10.89;51.33
80798;BME280;70202;52.238;10.680;2023-05-19T02:28:35;101252.00;;;10.89;51.97
80798;BME280;70202;52.238;10.680;2023-05-19T02:29:35;101257.34;;;10.93;51.84
80798;BME280;70202;52.238;10.680;2023-05-19T02:30:35;101253.75;;;10.91;52.14
80798;BME280;70202;52.238;10.680;2023-05-19T02:31:36;101245.66;;;10.88;51.09
80798;BME280;70202;52.238;10.680;2023-05-19T02:32:36;101243.00;;;10.85;51.70
80798;BME280;70202;52.238;10.680;2023-05-19T02:33:36;101247.50;;;10.88;51.88
80798;BME280;70202;52.238;10.680;2023-05-19T02:34:37;101241.19;;;10.86;51.45
80798;BME280;70202;52.238;10.680;2023-05-19T02:35:37;101242.13;;;10.85;51.57
80798;BME280;70202;52.238;10.680;2023-05-19T02:36:39;101255.59;;;10.91;51.24
80798;BME280;70202;52.238;10.680;2023-05-19T02:37:42;101258.28;;;10.92;52.33
80798;BME280;70202;52.238;10.680;2023-05-19T02:38:42;101243.91;;;10.86;52.05
80798;BME280;70202;52.238;10.680;2023-05-19T02:39:43;101249.22;;;10.90;52.23
80798;BME280;70202;52.238;10.680;2023-05-19T02:40:43;101245.72;;;10.85;51.68
80798;BME280;70202;52.238;10.680;2023-05-19T02:41:43;101247.56;;;10.85;51.82
80798;BME280;70202;52.238;10.680;2023-05-19T02:42:44;101243.06;;;10.84;51.92
80798;BME280;70202;52.238;10.680;2023-05-19T02:43:44;101255.63;;;10.89;51.91
80798;BME280;70202;52.238;10.680;2023-05-19T02:44:45;101249.28;;;10.89;51.62
80798;BME280;70202;52.238;10.680;2023-05-19T02:45:45;101255.69;;;10.86;52.03
80798;BME280;70202;52.238;10.680;2023-05-19T02:46:45;101252.97;;;10.88;52.53
80798;BME280;70202;52.238;10.680;2023-05-19T02:47:46;101231.41;;;10.77;51.65
80798;BME280;70202;52.238;10.680;2023-05-19T02:48:46;101246.63;;;10.86;51.82
80798;BME280;70202;52.238;10.680;2023-05-19T02:49:46;101246.63;;;10.86;52.01
80798;BME280;70202;52.238;10.680;2023-05-19T02:50:47;101253.91;;;10.85;52.23
80798;BME280;70202;52.238;10.680;2023-05-19T02:51:47;101247.63;;;10.83;51.98
80798;BME280;70202;52.238;10.680;2023-05-19T02:52:47;101244.06;;;10.80;51.23
80798;BME280;70202;52.238;10.680;2023-05-19T02:53:48;101233.31;;;10.73;52.04
80798;BME280;70202;52.238;10.680;2023-05-19T02:54:48;101250.44;;;10.79;51.49
80798;BME280;70202;52.238;10.680;2023-05-19T02:55:48;101244.19;;;10.75;51.99
80798;BME280;70202;52.238;10.680;2023-05-19T02:56:49;101235.28;;;10.67;51.86
80798;BME280;70202;52.238;10.680;2023-05-19T02:57:49;101238.03;;;10.67;51.74
80798;BME280;70202;52.238;10.680;2023-05-19T02:58:49;101246.09;;;10.71;51.50
80798;BME280;70202;52.238;10.680;2023-05-19T02:59:51;101242.47;;;10.71;51.44
80798;BME280;70202;52.238;10.680;2023-05-19T03:00:52;101242.59;;;10.66;51.98
80798;BME280;70202;52.238;10.680;2023-05-19T03:01:59;101247.03;;;10.69;52.00
80798;BME280;70202;52.238;10.680;2023-05-19T03:03:00;101250.81;;;10.63;51.60
80798;BME280;70202;52.238;10.680;2023-05-19T03:04:02;101252.66;;;10.61;52.12
80798;BME280;70202;52.238;10.680;2023-05-19T03:05:02;101248.03;;;10.65;51.47
80798;BME280;70202;52.238;10.680;2023-05-19T03:06:03;101233.66;;;10.60;52.34
80798;BME280;70202;52.238;10.680;2023-05-19T03:07:04;101252.59;;;10.64;52.05
80798;BME280;70202;52.238;10.680;2023-05-19T03:08:05;101253.59;;;10.60;52.17
80798;BME280;70202;52.238;10.680;2023-05-19T03:09:05;101247.31;;;10.58;52.04
80798;BME280;70202;52.238;10.680;2023-05-19T03:10:07;101249.94;;;10.61;51.88
80798;BME280;70202;52.238;10.680;2023-05-19T03:11:08;101246.50;;;10.53;52.03
80798;BME280;70202;52.238;10.680;2023-05-19T03:12:08;101244.69;;;10.54;51.92
80798;BME280;70202;52.238;10.680;2023-05-19T03:13:08;101256.41;;;10.57;52.70
80798;BME280;70202;52.238;10.680;2023-05-19T03:14:09;101242.06;;;10.49;52.04
80798;BME280;70202;52.238;10.680;2023-05-19T03:15:09;101250.09;;;10.55;52.29
80798;BME280;70202;52.238;10.680;2023-05-19T03:16:12;101252.81;;;10.55;51.92
80798;BME280;70202;52.238;10.680;2023-05-19T03:17:13;101243.00;;;10.48;52.11
80798;BME280;70202;52.238;10.680;2023-05-19T03:18:13;101247.44;;;10.52;52.56
80798;BME280;70202;52.238;10.680;2023-05-19T03:19:13;101242.06;;;10.49;52.18
80798;BME280;70202;52.238;10.680;2023-05-19T03:20:13;101247.50;;;10.50;52.60
80798;BME280;70202;52.238;10.680;2023-05-19T03:21:17;101252.03;;;10.50;52.47
80798;BME280;70202;52.238;10.680;2023-05-19T03:22:17;101252.03;;;10.50;52.16
80798;BME280;70202;52.238;10.680;2023-05-19T03:23:20;101250.28;;;10.47;52.26
80798;BME280;70202;52.238;10.680;2023-05-19T03:24:21;101235.91;;;10.41;52.45
80798;BME280;70202;52.238;10.680;2023-05-19T03:25:21;101248.56;;;10.43;51.88
80798;BME280;70202;52.238;10.680;2023-05-19T03:26:21;101245.88;;;10.42;52.49
80798;BME280;70202;52.238;10.680;2023-05-19T03:27:22;101228.81;;;10.32;52.45
80798;BME280;70202;52.238;10.680;2023-05-19T03:28:22;101245.00;;;10.40;52.44
80798;BME280;70202;52.238;10.680;2023-05-19T03:29:22;101249.56;;;10.39;52.00
80798;BME280;70202;52.238;10.680;2023-05-19T03:30:23;101244.22;;;10.35;52.32
80798;BME280;70202;52.238;10.680;2023-05-19T03:31:23;101244.22;;;10.35;51.91
80798;BME280;70202;52.238;10.680;2023-05-19T03:32:23;101246.03;;;10.34;51.93
80798;BME280;70202;52.238;10.680;2023-05-19T03:33:24;101247.88;;;10.34;51.96
80798;BME280;70202;52.238;10.680;2023-05-19T03:34:24;101250.72;;;10.29;52.29
80798;BME280;70202;52.238;10.680;2023-05-19T03:35:24;101239.88;;;10.26;51.82
80798;BME280;70202;52.238;10.680;2023-05-19T03:36:25;101251.53;;;10.33;51.81
80798;BME280;70202;52.238;10.680;2023-05-19T03:37:31;101248.00;;;10.27;52.48
80798;BME280;70202;52.238;10.680;2023-05-19T03:38:34;101244.31;;;10.30;51.87
80798;BME280;70202;52.238;10.680;2023-05-19T03:39:34;101244.38;;;10.29;52.58
80798;BME280;70202;52.238;10.680;2023-05-19T03:40:35;101248.91;;;10.28;51.89
80798;BME280;70202;52.238;10.680;2023-05-19T03:41:35;101235.44;;;10.20;52.37
80798;BME280;70202;52.238;10.680;2023-05-19T03:42:35;101237.22;;;10.21;52.24
80798;BME280;70202;52.238;10.680;2023-05-19T03:43:36;101234.56;;;10.18;52.22
80798;BME280;70202;52.238;10.680;2023-05-19T03:44:36;101248.97;;;10.25;52.53
80798;BME280;70202;52.238;10.680;2023-05-19T03:45:36;101254.38;;;10.26;52.62
80798;BME280;70202;52.238;10.680;2023-05-19T03:46:36;101241.78;;;10.19;52.12
80798;BME280;70202;52.238;10.680;2023-05-19T03:47:37;101256.16;;;10.27;52.53
80798;BME280;70202;52.238;10.680;2023-05-19T03:48:37;101246.31;;;10.20;52.84
80798;BME280;70202;52.238;10.680;2023-05-19T03:49:37;101254.38;;;10.26;51.89
80798;BME280;70202;52.238;10.680;2023-05-19T03:50:38;101247.22;;;10.21;51.98
80798;BME280;70202;52.238;10.680;2023-05-19T03:51:38;101259.88;;;10.25;53.04
80798;BME280;70202;52.238;10.680;2023-05-19T03:52:38;101256.25;;;10.24;52.68
80798;BME280;70202;52.238;10.680;2023-05-19T03:53:39;101255.31;;;10.25;52.07
80798;BME280;70202;52.238;10.680;2023-05-19T03:54:40;101266.22;;;10.25;52.94
80798;BME280;70202;52.238;10.680;2023-05-19T03:55:41;101265.28;;;10.26;52.58
80798;BME280;70202;52.238;10.680;2023-05-19T03:56:43;101261.59;;;10.27;52.48
80798;BME280;70202;52.238;10.680;2023-05-19T03:57:43;101249.00;;;10.22;52.49
80798;BME280;70202;52.238;10.680;2023-05-19T03:58:44;101261.59;;;10.27;52.79
80798;BME280;70202;52.238;10.680;2023-05-19T03:59:46;101257.13;;;10.23;52.02
80798;BME280;70202;52.238;10.680;2023-05-19T04:00:46;101262.53;;;10.28;52.33
80798;BME280;70202;52.238;10.680;2023-05-19T04:01:46;101264.28;;;10.31;53.20
80798;BME280;70202;52.238;10.680;2023-05-19T04:02:47;101255.16;;;10.33;51.96
80798;BME280;70202;52.238;10.680;2023-05-19T04:03:48;101246.16;;;10.30;52.72
80798;BME280;70202;52.238;10.680;2023-05-19T04:04:48;101256.06;;;10.32;52.58
80798;BME280;70202;52.238;10.680;2023-05-19T04:05:50;101259.66;;;10.34;52.31
80798;BME280;70202;52.238;10.680;2023-05-19T04:06:50;101254.25;;;10.33;52.14
80798;BME280;70202;52.238;10.680;2023-05-19T04:07:51;101257.81;;;10.35;52.71
80798;BME280;70202;52.238;10.680;2023-05-19T04:08:51;101262.22;;;10.40;52.82
80798;BME280;70202;52.238;10.680;2023-05-19T04:09:52;101263.16;;;10.41;52.29
80798;BME280;70202;52.238;10.680;2023-05-19T04:10:52;101251.44;;;10.37;52.27
80798;BME280;70202;52.238;10.680;2023-05-19T04:11:52;101255.94;;;10.38;52.28
80798;BME280;70202;52.238;10.680;2023-05-19T04:12:52;101258.50;;;10.44;52.85
80798;BME280;70202;52.238;10.680;2023-05-19T04:13:53;101244.16;;;10.36;52.33
80798;BME280;70202;52.238;10.680;2023-05-19T04:14:53;101249.63;;;10.36;52.60
80798;BME280;70202;52.238;10.680;2023-05-19T04:15:53;101257.66;;;10.42;52.71
80798;BME280;70202;52.238;10.680;2023-05-19T04:16:54;101262.94;;;10.48;53.29
80798;BME280;70202;52.238;10.680;2023-05-19T04:17:54;101269.28;;;10.50;53.10
80798;BME280;70202;52.238;10.680;2023-05-19T04:18:55;101273.75;;;10.53;52.79
80798;BME280;70202;52.238;10.680;2023-05-19T04:19:55;101260.22;;;10.50;52.63
80798;BME280;70202;52.238;10.680;2023-05-19T04:20:56;101273.69;;;10.56;52.14
80798;BME280;70202;52.238;10.680;2023-05-19T04:21:56;101261.84;;;10.57;52.31
80798;BME280;70202;52.238;10.680;2023-05-19T04:22:56;101264.47;;;10.62;52.32
80798;BME280;70202;52.238;10.680;2023-05-19T04:23:57;101264.50;;;10.60;52.80
80798;BME280;70202;52.238;10.680;2023-05-19T04:24:59;101262.66;;;10.62;52.75
80798;BME280;70202;52.238;10.680;2023-05-19T04:25:59;101267.94;;;10.68;52.92
80798;BME280;70202;52.238;10.680;2023-05-19T04:27:00;101273.34;;;10.70;52.29
80798;BME280;70202;52.238;10.680;2023-05-19T04:28:02;101254.38;;;10.67;52.69
80798;BME280;70202;52.238;10.680;2023-05-19T04:29:03;101268.63;;;10.78;52.66
80798;BME280;70202;52.238;10.680;2023-05-19T04:30:04;101268.53;;;10.81;52.73
80798;BME280;70202;52.238;10.680;2023-05-19T04:31:05;101251.44;;;10.74;52.18
80798;BME280;70202;52.238;10.680;2023-05-19T04:32:09;101267.50;;;10.87;52.39
80798;BME280;70202;52.238;10.680;2023-05-19T04:33:09;101254.75;;;10.87;52.21
80798;BME280;70202;52.238;10.680;2023-05-19T04:34:10;101252.97;;;10.88;52.68
80798;BME280;70202;52.238;10.680;2023-05-19T04:35:10;101253.84;;;10.88;51.98
80798;BME280;70202;52.238;10.680;2023-05-19T04:36:12;101255.50;;;10.94;52.91
80798;BME280;70202;52.238;10.680;2023-05-19T04:37:13;101253.56;;;10.99;51.98
80798;BME280;70202;52.238;10.680;2023-05-19T04:38:15;101249.16;;;10.93;52.42
80798;BME280;70202;52.238;10.680;2023-05-19T04:39:17;101256.22;;;11.02;52.13
80798;BME280;70202;52.238;10.680;2023-05-19T04:40:18;101260.72;;;11.03;52.50
80798;BME280;70202;52.238;10.680;2023-05-19T04:41:20;101260.72;;;11.05;52.33
80798;BME280;70202;52.238;10.680;2023-05-19T04:42:20;101260.66;;;11.06;52.51
80798;BME280;70202;52.238;10.680;2023-05-19T04:43:21;101269.69;;;11.08;52.58
80798;BME280;70202;52.238;10.680;2023-05-19T04:44:21;101254.34;;;11.04;53.02
80798;BME280;70202;52.238;10.680;2023-05-19T04:45:22;101259.72;;;11.07;53.14
80798;BME280;70202;52.238;10.680;2023-05-19T04:46:23;101267.75;;;11.13;52.59
80798;BME280;70202;52.238;10.680;2023-05-19T04:47:23;101258.69;;;11.11;52.55
80798;BME280;70202;52.238;10.680;2023-05-19T04:48:27;101255.03;;;11.12;52.38
80798;BME280;70202;52.238;10.680;2023-05-19T04:49:29;101261.28;;;11.17;52.65
80798;BME280;70202;52.238;10.680;2023-05-19T04:50:30;101270.19;;;11.24;53.20
80798;BME280;70202;52.238;10.680;2023-05-19T04:51:31;101254.00;;;11.18;53.08
80798;BME280;70202;52.238;10.680;2023-05-19T04:52:32;101265.50;;;11.29;52.81
80798;BME280;70202;52.238;10.680;2023-05-19T04:53:32;101268.09;;;11.35;53.05
80798;BME280;70202;52.238;10.680;2023-05-19T04:54:33;101253.56;;;11.35;53.06
80798;BME280;70202;52.238;10.680;2023-05-19T04:55:34;101267.84;;;11.44;53.28
80798;BME280;70202;52.238;10.680;2023-05-19T04:56:35;101270.44;;;11.49;52.44
80798;BME280;70202;52.238;10.680;2023-05-19T04:57:35;101259.44;;;11.52;52.40
80798;BME280;70202;52.238;10.680;2023-05-19T04:58:36;101263.06;;;11.52;52.33
80798;BME280;70202;52.238;10.680;2023-05-19T04:59:37;101265.63;;;11.59;53.19
80798;BME280;70202;52.238;10.680;2023-05-19T05:00:37;101265.59;;;11.60;52.18
80798;BME280;70202;52.238;10.680;2023-05-19T05:01:37;101261.91;;;11.61;52.26
80798;BME280;70202;52.238;10.680;2023-05-19T05:02:39;101264.59;;;11.63;53.16
80798;BME280;70202;52.238;10.680;2023-05-19T05:03:41;101259.19;;;11.61;52.97
80798;BME280;70202;52.238;10.680;2023-05-19T05:04:42;101257.22;;;11.66;53.19
80798;BME280;70202;52.238;10.680;2023-05-19T05:05:43;101253.72;;;11.61;52.92
80798;BME280;70202;52.238;10.680;2023-05-19T05:06:43;101235.72;;;11.54;52.82
80798;BME280;70202;52.238;10.680;2023-05-19T05:07:47;101257.28;;;11.63;52.48
80798;BME280;70202;52.238;10.680;2023-05-19T05:08:48;101259.13;;;11.64;52.64
80798;BME280;70202;52.238;10.680;2023-05-19T05:09:49;101260.72;;;11.71;53.08
80798;BME280;70202;52.238;10.680;2023-05-19T05:10:51;101266.16;;;11.73;52.80
80798;BME280;70202;52.238;10.680;2023-05-19T05:11:51;101264.25;;;11.75;52.64
80798;BME280;70202;52.238;10.680;2023-05-19T05:12:52;101266.94;;;11.76;52.53
80798;BME280;70202;52.238;10.680;2023-05-19T05:13:52;101252.63;;;11.68;52.88
80798;BME280;70202;52.238;10.680;2023-05-19T05:14:57;101261.53;;;11.75;52.93
80798;BME280;70202;52.238;10.680;2023-05-19T05:15:57;101274.03;;;11.84;52.91
80798;BME280;70202;52.238;10.680;2023-05-19T05:16:58;101271.31;;;11.84;53.05
80798;BME280;70202;52.238;10.680;2023-05-19T05:17:59;101272.19;;;11.86;52.98
80798;BME280;70202;52.238;10.680;2023-05-19T05:19:00;101275.81;;;11.86;52.79
80798;BME280;70202;52.238;10.680;2023-05-19T05:20:01;101260.44;;;11.81;53.18
80798;BME280;70202;52.238;10.680;2023-05-19T05:21:02;101276.63;;;11.90;52.81
80798;BME280;70202;52.238;10.680;2023-05-19T05:22:03;101267.50;;;11.89;52.92
80798;BME280;70202;52.238;10.680;2023-05-19T05:23:04;101254.00;;;11.85;52.78
80798;BME280;70202;52.238;10.680;2023-05-19T05:24:05;101277.31;;;11.98;53.03
80798;BME280;70202;52.238;10.680;2023-05-19T05:25:06;101266.41;;;11.96;52.86
80798;BME280;70202;52.238;10.680;2023-05-19T05:26:16;101270.03;;;11.97;53.00
80798;BME280;70202;52.238;10.680;2023-05-19T05:27:17;101271.72;;;12.01;52.36
80798;BME280;70202;52.238;10.680;2023-05-19T05:28:17;101261.84;;;11.97;52.75
80798;BME280;70202;52.238;10.680;2023-05-19T05:29:18;101274.38;;;12.04;52.85
80798;BME280;70202;52.238;10.680;2023-05-19T05:30:18;101276.16;;;12.05;53.41
80798;BME280;70202;52.238;10.680;2023-05-19T05:31:19;101273.41;;;12.07;52.85
80798;BME280;70202;52.238;10.680;2023-05-19T05:32:20;101260.88;;;11.99;52.61
80798;BME280;70202;52.238;10.680;2023-05-19T05:33:20;101261.66;;;12.03;52.80
80798;BME280;70202;52.238;10.680;2023-05-19T05:34:21;101266.94;;;12.09;52.65
80798;BME280;70202;52.238;10.680;2023-05-19T05:35:22;101257.94;;;12.06;52.56
80798;BME280;70202;52.238;10.680;2023-05-19T05:36:23;101263.38;;;12.07;52.99
80798;BME280;70202;52.238;10.680;2023-05-19T05:37:23;101262.22;;;12.14;53.15